Hartford, Connecticut
Current Conditions -  °F | °C
As of 4:53 PM on Sunday 25 Jan 2015 (Local Time) from KHFD Reporting Station
Clear Clear  
Wind Chill: -4°   Ceiling: Unl
Heat Index: -1°   Visibility: 10mi
Dew Point: -13°   Wind: 6mph
Humidity: 38%   Direction: NA
Pressure: 29.83"   Gusts: NA
Location:  41.76°N, 72.67°W
Report Text: KHFD 252153Z VRB05KT 10SM CLR M01/M13 A2983 RMK AO2 SLP101 T10061133
Loading
Personal Weather Stations






























Interactive Weather Map New forecast layout! Learn more

10-Day Weather Forecast

Advertisements
Track Severe Weather on mobile